createdAt,value
2023-01-07T00:01:51.021Z,100693.63
2023-01-07T00:04:18.100Z,100676.91
2023-01-07T00:06:47.466Z,100678.66
2023-01-07T00:09:18.765Z,100673.34
2023-01-07T00:11:46.298Z,100669.78
2023-01-07T00:14:14.506Z,100678.63
2023-01-07T00:16:42.644Z,100668.03
2023-01-07T00:19:15.084Z,100662.78
2023-01-07T00:21:43.119Z,100659.31
2023-01-07T00:24:11.554Z,100653.19
2023-01-07T00:26:40.193Z,100649.59
2023-01-07T00:29:08.624Z,100658.34
2023-01-07T00:31:39.089Z,100658.38
2023-01-07T00:34:07.306Z,100654.00
2023-01-07T00:36:39.238Z,100647.84
2023-01-07T00:39:17.608Z,100646.94
2023-01-07T00:42:05.715Z,100639.88
2023-01-07T00:44:33.567Z,100644.31
2023-01-07T00:47:01.403Z,100639.00
2023-01-07T00:49:28.943Z,100635.44
2023-01-07T00:51:55.991Z,100639.88
2023-01-07T00:54:23.841Z,100637.19
2023-01-07T00:56:50.825Z,100628.44
2023-01-07T00:59:17.821Z,100630.16
2023-01-07T01:01:44.920Z,100628.41
2023-01-07T01:04:12.092Z,100624.97
2023-01-07T01:06:39.075Z,100623.13
2023-01-07T01:09:06.077Z,100617.84
2023-01-07T01:11:33.062Z,100613.44
2023-01-07T01:14:00.057Z,100622.25
2023-01-07T01:16:27.170Z,100623.09
2023-01-07T01:18:54.210Z,100619.59
2023-01-07T01:21:21.219Z,100617.84
2023-01-07T01:23:48.340Z,100619.59
2023-01-07T01:26:17.756Z,100620.44
2023-01-07T01:28:45.737Z,100615.94
2023-01-07T01:31:13.641Z,100615.09
2023-01-07T01:33:40.916Z,100621.19
2023-01-07T01:36:11.174Z,100621.16
2023-01-07T01:38:38.651Z,100630.03
2023-01-07T01:41:07.231Z,100629.09
2023-01-07T01:43:37.968Z,100625.59
2023-01-07T01:46:17.446Z,100627.34
2023-01-07T01:48:53.552Z,100626.50
2023-01-07T01:51:25.183Z,100617.72
2023-01-07T01:53:53.157Z,100623.75
2023-01-07T01:56:30.345Z,100621.06
2023-01-07T01:59:08.810Z,100620.13
2023-01-07T02:01:37.230Z,100622.75
2023-01-07T02:04:18.047Z,100623.72
2023-01-07T02:07:16.904Z,100625.38
2023-01-07T02:09:44.485Z,100623.72
2023-01-07T02:12:37.952Z,100630.84
2023-01-07T02:15:20.167Z,100614.22
2023-01-07T02:18:31.423Z,100612.50
2023-01-07T02:21:39.384Z,100596.75
2023-01-07T02:24:28.616Z,100597.63
2023-01-07T02:27:17.072Z,100596.81
2023-01-07T02:30:13.758Z,100584.38
2023-01-07T02:33:37.163Z,100589.59
2023-01-07T02:36:50.066Z,100579.88
2023-01-07T02:40:08.229Z,100582.53
2023-01-07T02:43:06.205Z,100580.78
2023-01-07T02:45:52.962Z,100585.09
2023-01-07T02:48:22.155Z,100579.84
2023-01-07T02:50:49.115Z,100576.34
2023-01-07T02:53:20.111Z,100573.69
2023-01-07T02:56:24.736Z,100578.19
2023-01-07T02:59:07.879Z,100572.13
2023-01-07T03:02:26.484Z,100565.13
2023-01-07T03:05:18.923Z,100558.09
2023-01-07T03:08:12.636Z,100551.94
2023-01-07T03:11:00.822Z,100553.72
2023-01-07T03:13:42.036Z,100549.44
2023-01-07T03:16:13.764Z,100550.25
2023-01-07T03:18:56.676Z,100543.16
2023-01-07T03:21:26.421Z,100541.34
2023-01-07T03:23:57.506Z,100535.06
2023-01-07T03:26:33.080Z,100546.47
2023-01-07T03:29:03.224Z,100549.06
2023-01-07T03:31:31.319Z,100553.41
2023-01-07T03:34:10.796Z,100559.69
2023-01-07T03:36:43.438Z,100552.72
2023-01-07T03:39:12.715Z,100548.34
2023-01-07T03:42:06.876Z,100531.66
2023-01-07T03:44:33.870Z,100536.94
2023-01-07T03:47:01.563Z,100531.75
2023-01-07T03:49:28.633Z,100539.72
2023-01-07T03:51:55.780Z,100537.03
2023-01-07T03:54:23.958Z,100533.56
2023-01-07T03:56:50.955Z,100521.22
2023-01-07T03:59:18.178Z,100520.25
2023-01-07T04:01:45.291Z,100512.34
2023-01-07T04:04:12.344Z,100520.28
2023-01-07T04:06:39.390Z,100521.22
2023-01-07T04:09:06.546Z,100520.34
2023-01-07T04:11:33.653Z,100521.25
2023-01-07T04:14:00.940Z,100516.88
2023-01-07T04:16:28.292Z,100516.91
2023-01-07T04:18:55.575Z,100517.78
2023-01-07T04:21:22.643Z,100514.22
2023-01-07T04:23:49.675Z,100507.19
2023-01-07T04:26:16.687Z,100509.84
2023-01-07T04:28:43.687Z,100505.41
2023-01-07T04:31:10.916Z,100496.63
2023-01-07T04:33:37.991Z,100498.31
2023-01-07T04:36:05.468Z,100502.63
2023-01-07T04:38:32.452Z,100498.22
2023-01-07T04:40:59.496Z,100498.19
2023-01-07T04:43:26.482Z,100494.66
2023-01-07T04:45:53.550Z,100493.75
2023-01-07T04:48:20.524Z,100498.09
2023-01-07T04:50:48.256Z,100495.44
2023-01-07T04:53:16.358Z,100495.47
2023-01-07T04:55:44.989Z,100498.97
2023-01-07T04:58:13.253Z,100498.97
2023-01-07T05:00:40.197Z,100498.97
2023-01-07T05:03:07.326Z,100493.72
2023-01-07T05:05:34.342Z,100491.00
2023-01-07T05:08:01.344Z,100491.91
2023-01-07T05:10:28.392Z,100486.63
2023-01-07T05:12:55.392Z,100482.28
2023-01-07T05:15:22.400Z,100492.00
2023-01-07T05:17:49.340Z,100485.84
2023-01-07T05:20:16.425Z,100479.66
2023-01-07T05:22:43.463Z,100478.81
2023-01-07T05:25:10.611Z,100474.31
2023-01-07T05:27:37.675Z,100474.28
2023-01-07T05:30:05.615Z,100475.19
2023-01-07T05:32:32.599Z,100476.91
2023-01-07T05:34:59.543Z,100469.84
2023-01-07T05:37:26.511Z,100470.69
2023-01-07T05:39:53.450Z,100468.97
2023-01-07T05:42:20.461Z,100468.97
2023-01-07T05:44:47.385Z,100459.28
2023-01-07T05:47:14.303Z,100468.03
2023-01-07T05:49:44.077Z,100461.06
2023-01-07T05:52:11.060Z,100461.06
2023-01-07T05:54:38.108Z,100456.66
2023-01-07T05:57:05.109Z,100453.09
2023-01-07T05:59:34.783Z,100450.50
2023-01-07T06:02:02.698Z,100454.84
2023-01-07T06:04:30.013Z,100450.41
2023-01-07T06:06:57.010Z,100453.00
2023-01-07T06:09:24.022Z,100454.75
2023-01-07T06:11:51.027Z,100462.72
2023-01-07T06:14:18.261Z,100455.72
2023-01-07T06:16:45.226Z,100453.09
2023-01-07T06:19:12.256Z,100454.81
2023-01-07T06:21:39.321Z,100451.31
2023-01-07T06:24:07.313Z,100449.53
2023-01-07T06:26:34.365Z,100446.03
2023-01-07T06:29:01.367Z,100448.66
2023-01-07T06:31:28.384Z,100444.25
2023-01-07T06:33:55.570Z,100441.59
2023-01-07T06:36:22.644Z,100444.28
2023-01-07T06:38:49.608Z,100434.53
2023-01-07T06:41:16.600Z,100437.16
2023-01-07T06:43:43.548Z,100437.16
2023-01-07T06:46:10.821Z,100429.25
2023-01-07T06:48:37.756Z,100421.31
2023-01-07T06:51:05.094Z,100429.19
2023-01-07T06:53:32.233Z,100423.00
2023-01-07T06:55:59.184Z,100416.84
2023-01-07T06:58:26.153Z,100420.34
2023-01-07T07:00:53.121Z,100415.03
2023-01-07T07:03:20.092Z,100415.00
2023-01-07T07:05:47.201Z,100417.66
2023-01-07T07:08:14.172Z,100419.41
2023-01-07T07:10:41.141Z,100422.03
2023-01-07T07:13:08.492Z,100417.63
2023-01-07T07:15:35.489Z,100408.81
2023-01-07T07:18:02.550Z,100414.06
2023-01-07T07:20:29.510Z,100414.09
2023-01-07T07:22:56.552Z,100412.34
2023-01-07T07:25:23.543Z,100414.97
2023-01-07T07:27:50.692Z,100413.22
2023-01-07T07:30:17.877Z,100414.97
2023-01-07T07:32:45.048Z,100408.84
2023-01-07T07:35:12.602Z,100405.31
2023-01-07T07:37:39.981Z,100407.09
2023-01-07T07:40:09.187Z,100405.34
2023-01-07T07:43:09.316Z,100400.06
2023-01-07T07:45:24.588Z,100404.47
2023-01-07T07:47:51.650Z,100401.88
2023-01-07T07:50:18.726Z,100397.47
2023-01-07T07:52:46.377Z,100396.59
2023-01-07T07:55:20.794Z,100388.72
2023-01-07T07:57:55.529Z,100386.97
2023-01-07T08:00:23.085Z,100391.34
2023-01-07T08:02:50.289Z,100386.97
2023-01-07T08:05:17.433Z,100388.72
2023-01-07T08:07:44.528Z,100393.19
2023-01-07T08:10:11.585Z,100388.78
2023-01-07T08:12:39.336Z,100387.97
2023-01-07T08:15:08.186Z,100391.53
2023-01-07T08:17:36.535Z,100388.00
2023-01-07T08:20:07.712Z,100383.66
2023-01-07T08:22:35.003Z,100388.94
2023-01-07T08:25:02.420Z,100388.97
2023-01-07T08:27:29.730Z,100380.22
2023-01-07T08:29:56.956Z,100382.88
2023-01-07T08:32:24.157Z,100385.50
2023-01-07T08:34:51.187Z,100384.66
2023-01-07T08:37:18.190Z,100383.78
2023-01-07T08:39:45.197Z,100385.63
2023-01-07T08:42:12.248Z,100389.13
2023-01-07T08:44:39.505Z,100377.78
2023-01-07T08:47:06.499Z,100390.97
2023-01-07T08:49:33.586Z,100380.47
2023-01-07T08:52:00.657Z,100378.72
2023-01-07T08:54:27.937Z,100378.84
2023-01-07T08:56:54.900Z,100378.00
2023-01-07T08:59:21.830Z,100372.88
2023-01-07T09:01:48.995Z,100375.59
2023-01-07T09:04:16.086Z,100367.75
2023-01-07T09:06:43.139Z,100369.59
2023-01-07T09:09:11.999Z,100368.81
2023-01-07T09:11:39.118Z,100367.16
2023-01-07T09:14:06.206Z,100366.41
2023-01-07T09:16:33.300Z,100358.47
2023-01-07T09:19:00.392Z,100353.25
2023-01-07T09:21:27.370Z,100350.56
2023-01-07T09:23:54.321Z,100344.56
2023-01-07T09:26:21.284Z,100346.34
2023-01-07T09:28:48.210Z,100336.66
2023-01-07T09:34:01.796Z,100341.19
2023-01-07T09:36:29.156Z,100329.88
2023-01-07T09:38:56.236Z,100336.88
2023-01-07T09:41:44.644Z,100340.44
2023-01-07T09:44:48.771Z,100333.44
2023-01-07T09:47:19.625Z,100326.44
2023-01-07T09:49:51.246Z,100327.44
2023-01-07T09:52:22.846Z,100319.53
2023-01-07T09:54:58.744Z,100320.44
2023-01-07T09:57:27.769Z,100320.53
2023-01-07T09:59:55.392Z,100317.91
2023-01-07T10:02:40.624Z,100321.50
2023-01-07T10:05:29.155Z,100305.69
2023-01-07T10:08:33.036Z,100294.25
2023-01-07T10:11:28.925Z,100289.88
2023-01-07T10:14:30.808Z,100281.09
2023-01-07T10:17:25.952Z,100270.53
2023-01-07T10:20:33.847Z,100272.34
2023-01-07T10:23:32.087Z,100254.75
2023-01-07T10:26:03.259Z,100255.69
2023-01-07T10:28:47.776Z,100248.63
2023-01-07T10:31:33.352Z,100242.50
2023-01-07T10:34:57.029Z,100221.34
2023-01-07T10:37:46.474Z,100231.94
2023-01-07T10:40:39.094Z,100227.59
2023-01-07T10:43:37.673Z,100212.59
2023-01-07T10:46:42.165Z,100214.41
2023-01-07T10:49:35.354Z,100213.56
2023-01-07T10:52:23.576Z,100201.22
2023-01-07T10:55:20.421Z,100193.31
2023-01-07T10:57:49.058Z,100196.88
2023-01-07T11:00:17.959Z,100203.06
2023-01-07T11:03:00.734Z,100192.50
2023-01-07T11:05:38.118Z,100190.72
2023-01-07T11:08:32.401Z,100174.00
2023-01-07T11:11:04.338Z,100181.09
2023-01-07T11:13:34.214Z,100178.44
2023-01-07T11:16:26.540Z,100160.81
2023-01-07T11:19:01.509Z,100159.91
2023-01-07T11:21:44.079Z,100150.22
2023-01-07T11:24:35.723Z,100141.44
2023-01-07T11:27:19.356Z,100137.94
2023-01-07T11:30:00.873Z,100139.72
2023-01-07T11:32:32.103Z,100137.97
2023-01-07T11:35:06.388Z,100133.56
2023-01-07T11:37:49.640Z,100139.78
2023-01-07T11:40:20.743Z,100127.44
2023-01-07T11:43:05.539Z,100121.28
2023-01-07T11:46:19.938Z,100121.28
2023-01-07T11:49:01.707Z,100104.56
2023-01-07T11:51:42.086Z,100099.34
2023-01-07T11:54:27.452Z,100089.69
2023-01-07T11:57:22.098Z,100085.28
2023-01-07T12:00:05.940Z,100098.53
2023-01-07T12:02:33.188Z,100076.50
2023-01-07T12:05:29.632Z,100051.81
2023-01-07T12:07:59.193Z,100056.25
2023-01-07T12:10:32.597Z,100047.44
2023-01-07T12:13:16.238Z,100051.00
2023-01-07T12:16:06.109Z,100044.84
2023-01-07T12:18:55.620Z,100037.78
2023-01-07T12:21:33.272Z,100016.66
2023-01-07T12:24:44.314Z,100038.72
2023-01-07T12:27:35.761Z,100029.91
2023-01-07T12:30:38.092Z,100022.00
2023-01-07T12:34:00.678Z,99992.00
2023-01-07T12:37:08.151Z,99992.91
2023-01-07T12:39:41.533Z,99979.69
2023-01-07T12:44:56.026Z,99959.41
2023-01-07T12:48:00.283Z,99958.50
2023-01-07T12:50:46.325Z,99946.16
2023-01-07T12:53:25.547Z,99916.19
2023-01-07T12:56:00.177Z,99927.63
2023-01-07T12:58:52.664Z,99917.94
2023-01-07T13:01:43.130Z,99924.97
2023-01-07T13:04:42.737Z,99897.56
2023-01-07T13:07:35.585Z,99905.44
2023-01-07T13:10:23.912Z,99855.13
2023-01-07T13:12:59.711Z,99825.09
2023-01-07T13:15:34.246Z,99840.97
2023-01-07T13:18:21.445Z,99828.63
2023-01-07T13:21:08.482Z,99777.56
2023-01-07T13:24:19.393Z,99751.97
2023-01-07T13:27:09.786Z,99761.66
2023-01-07T13:30:00.750Z,99758.19
2023-01-07T13:32:58.054Z,99736.16
2023-01-07T13:35:44.100Z,99769.66
2023-01-07T13:38:35.600Z,99762.63
2023-01-07T13:41:14.741Z,99760.84
2023-01-07T13:43:58.197Z,99787.22
2023-01-07T13:46:35.712Z,99780.94
2023-01-07T13:49:03.329Z,99780.88
2023-01-07T13:51:37.341Z,99757.88
2023-01-07T13:54:05.036Z,99767.47
2023-01-07T13:56:36.193Z,99737.41
2023-01-07T13:59:04.185Z,99689.94
2023-01-07T14:01:33.737Z,99703.09
2023-01-07T14:04:03.969Z,99675.00
2023-01-07T14:06:38.750Z,99683.88
2023-01-07T14:09:11.161Z,99682.91
2023-01-07T14:11:42.371Z,99676.75
2023-01-07T14:14:35.399Z,99670.41
2023-01-07T14:18:00.411Z,99627.31
2023-01-07T14:20:39.779Z,99632.63
2023-01-07T14:23:25.385Z,99637.97
2023-01-07T14:26:13.804Z,99622.91
2023-01-07T14:29:04.983Z,99620.25
2023-01-07T14:31:32.275Z,99628.25
2023-01-07T14:34:09.040Z,99618.69
2023-01-07T14:37:09.115Z,99631.88
2023-01-07T14:39:38.984Z,99641.53
2023-01-07T14:42:20.969Z,99623.81
2023-01-07T14:44:51.825Z,99614.19
2023-01-07T14:47:43.143Z,99615.16
2023-01-07T14:50:37.948Z,99617.78
2023-01-07T14:53:22.177Z,99586.19
2023-01-07T14:56:26.871Z,99588.88
2023-01-07T14:59:20.724Z,99577.50
2023-01-07T15:02:41.470Z,99592.53
2023-01-07T15:05:51.557Z,99586.38
2023-01-07T15:08:41.431Z,99577.66
2023-01-07T15:11:34.517Z,99641.91
2023-01-07T15:14:28.619Z,99605.91
2023-01-07T15:16:56.452Z,99597.19
2023-01-07T15:19:23.638Z,99609.53
2023-01-07T15:22:08.405Z,99593.69
2023-01-07T15:24:55.848Z,99603.44
2023-01-07T15:27:39.468Z,99601.69
2023-01-07T15:30:43.264Z,99603.44
2023-01-07T15:33:53.099Z,99601.66
2023-01-07T15:36:20.390Z,99590.25
2023-01-07T15:38:52.958Z,99651.84
2023-01-07T15:41:38.388Z,99694.91
2023-01-07T15:44:16.645Z,99570.00
2023-01-07T15:46:44.249Z,99558.63
2023-01-07T15:49:20.742Z,99657.16
2023-01-07T15:51:57.351Z,99613.09
2023-01-07T15:54:39.746Z,99584.97
2023-01-07T15:57:28.233Z,99534.91
2023-01-07T15:59:56.613Z,99545.47
2023-01-07T16:02:27.674Z,99544.59
2023-01-07T16:04:59.645Z,99548.97
2023-01-07T16:07:48.235Z,99541.06
2023-01-07T16:10:27.301Z,99554.22
2023-01-07T16:13:06.904Z,99570.97
2023-01-07T16:15:38.496Z,99569.16
2023-01-07T16:18:19.217Z,99560.38
2023-01-07T16:20:57.907Z,99563.88
2023-01-07T16:23:46.390Z,99566.53
2023-01-07T16:26:27.286Z,99553.31
2023-01-07T16:29:02.708Z,99549.81
2023-01-07T16:31:30.948Z,99554.19
2023-01-07T16:34:00.150Z,99545.41
2023-01-07T16:36:37.676Z,99536.59
2023-01-07T16:39:17.677Z,99548.03
2023-01-07T16:41:44.950Z,99541.88
2023-01-07T16:44:56.800Z,99539.22
2023-01-07T16:47:33.069Z,99533.97
2023-01-07T16:50:15.221Z,99508.44
2023-01-07T16:52:57.632Z,99525.13
2023-01-07T16:56:03.508Z,99538.28
2023-01-07T16:58:38.374Z,99533.88
2023-01-07T17:01:06.801Z,99537.38
2023-01-07T17:03:47.958Z,99526.78
2023-01-07T17:06:23.132Z,99518.75
2023-01-07T17:08:53.466Z,99531.88
2023-01-07T17:11:28.099Z,99541.53
2023-01-07T17:13:55.190Z,99546.78
2023-01-07T17:16:42.615Z,99536.22
2023-01-07T17:19:27.995Z,99542.41
2023-01-07T17:22:05.851Z,99542.41
2023-01-07T17:24:47.523Z,99535.34
2023-01-07T17:27:28.890Z,99532.59
2023-01-07T17:29:56.688Z,99540.50
2023-01-07T17:32:24.449Z,99527.25
2023-01-07T17:34:52.089Z,99519.19
2023-01-07T17:37:19.287Z,99541.22
2023-01-07T17:39:46.553Z,99534.19
2023-01-07T17:42:52.342Z,99525.28
2023-01-07T17:45:20.951Z,99535.00
2023-01-07T17:47:49.727Z,99532.31
2023-01-07T17:50:19.712Z,99516.34
2023-01-07T17:52:50.203Z,99516.31
2023-01-07T17:55:26.359Z,99495.91
2023-01-07T17:57:53.675Z,99496.56
2023-01-07T18:00:25.814Z,99508.72
2023-01-07T18:02:52.969Z,99512.97
2023-01-07T18:05:23.351Z,99533.22
2023-01-07T18:07:52.679Z,99532.25
2023-01-07T18:10:29.137Z,99533.00
2023-01-07T18:12:56.120Z,99550.75
2023-01-07T18:15:26.269Z,99540.97
2023-01-07T18:17:54.112Z,99548.53
2023-01-07T18:20:22.530Z,99559.91
2023-01-07T18:22:50.617Z,99565.25
2023-01-07T18:25:21.757Z,99535.94
2023-01-07T18:27:53.108Z,99548.81
2023-01-07T18:30:22.259Z,99561.47
2023-01-07T18:32:53.196Z,99541.91
2023-01-07T18:35:22.891Z,99558.13
2023-01-07T18:37:50.894Z,99550.88
2023-01-07T18:40:19.043Z,99557.97
2023-01-07T18:42:46.233Z,99564.28
2023-01-07T18:45:14.079Z,99551.84
2023-01-07T18:47:43.101Z,99556.88
2023-01-07T18:50:10.287Z,99543.66
2023-01-07T18:52:42.180Z,99551.63
2023-01-07T18:55:10.927Z,99557.69
2023-01-07T18:57:38.194Z,99565.72
2023-01-07T19:00:06.983Z,99563.09
2023-01-07T19:02:34.705Z,99560.34
2023-01-07T19:05:02.178Z,99570.88
2023-01-07T19:07:30.862Z,99560.56
2023-01-07T19:09:58.022Z,99543.38
2023-01-07T19:12:25.071Z,99558.34
2023-01-07T19:14:52.104Z,99577.81
2023-01-07T19:17:19.285Z,99580.78
2023-01-07T19:19:48.624Z,99555.03
2023-01-07T19:22:16.647Z,99565.56
2023-01-07T19:24:44.595Z,99564.75
2023-01-07T19:27:12.791Z,99574.72
2023-01-07T19:29:39.838Z,99559.69
2023-01-07T19:32:07.141Z,99548.91
2023-01-07T19:34:34.251Z,99576.38
2023-01-07T19:37:01.411Z,99571.13
2023-01-07T19:39:28.874Z,99585.50
2023-01-07T19:41:56.916Z,99571.25
2023-01-07T19:44:24.066Z,99575.53
2023-01-07T19:46:51.421Z,99584.53
2023-01-07T19:49:18.853Z,99573.91
2023-01-07T19:51:46.103Z,99568.56
2023-01-07T19:54:16.185Z,99575.03
2023-01-07T19:56:45.245Z,99558.97
2023-01-07T19:59:15.057Z,99553.66
2023-01-07T20:01:42.569Z,99538.59
2023-01-07T20:04:12.368Z,99561.75
2023-01-07T20:06:39.767Z,99564.44
2023-01-07T20:09:11.550Z,99551.13
2023-01-07T20:11:39.645Z,99555.56
2023-01-07T20:14:07.870Z,99556.44
2023-01-07T20:16:37.055Z,99559.13
2023-01-07T20:19:05.353Z,99549.31
2023-01-07T20:21:33.692Z,99550.00
2023-01-07T20:24:00.737Z,99547.31
2023-01-07T20:26:31.250Z,99556.28
2023-01-07T20:28:59.788Z,99555.34
2023-01-07T20:31:29.212Z,99550.97
2023-01-07T20:33:57.579Z,99551.81
2023-01-07T20:36:28.841Z,99556.22
2023-01-07T20:38:56.768Z,99556.22
2023-01-07T20:41:26.417Z,99553.50
2023-01-07T20:43:58.650Z,99554.28
2023-01-07T20:46:28.616Z,99556.06
2023-01-07T20:48:57.160Z,99564.81
2023-01-07T20:51:24.555Z,99558.72
2023-01-07T20:53:52.547Z,99576.56
2023-01-07T20:56:24.090Z,99570.56
2023-01-07T20:58:51.226Z,99574.13
2023-01-07T21:01:22.051Z,99573.47
2023-01-07T21:03:49.667Z,99574.38
2023-01-07T21:06:20.146Z,99573.56
2023-01-07T21:08:48.661Z,99575.44
2023-01-07T21:11:19.661Z,99573.72
2023-01-07T21:13:47.627Z,99581.59
2023-01-07T21:16:15.765Z,99584.19
2023-01-07T21:18:43.074Z,99591.31
2023-01-07T21:21:14.226Z,99581.59
2023-01-07T21:23:41.878Z,99596.47
2023-01-07T21:26:10.118Z,99600.91
2023-01-07T21:28:37.252Z,99593.00
2023-01-07T21:31:08.897Z,99596.53
2023-01-07T21:33:37.692Z,99595.69
2023-01-07T21:36:19.164Z,99595.78
2023-01-07T21:38:47.536Z,99597.56
2023-01-07T21:41:16.674Z,99602.84
2023-01-07T21:43:44.484Z,99604.63
2023-01-07T21:46:12.008Z,99601.22
2023-01-07T21:48:46.517Z,99609.19
2023-01-07T21:51:23.341Z,99611.84
2023-01-07T21:53:55.905Z,99599.63
2023-01-07T21:56:25.539Z,99594.44
2023-01-07T21:58:53.130Z,99596.31
2023-01-07T22:01:20.477Z,99596.34
2023-01-07T22:03:49.441Z,99593.78
2023-01-07T22:06:23.723Z,99605.34
2023-01-07T22:08:55.649Z,99603.78
2023-01-07T22:11:23.166Z,99603.72
2023-01-07T22:13:56.428Z,99604.56
2023-01-07T22:16:25.379Z,99609.06
2023-01-07T22:18:52.758Z,99626.00
2023-01-07T22:21:21.378Z,99627.09
2023-01-07T22:23:48.971Z,99636.84
2023-01-07T22:26:18.631Z,99607.81
2023-01-07T22:28:52.917Z,99594.63
2023-01-07T22:31:24.161Z,99585.84
2023-01-07T22:33:52.173Z,99596.41
2023-01-07T22:36:34.294Z,99584.09
2023-01-07T22:39:10.322Z,99580.63
2023-01-07T22:41:37.895Z,99568.31
2023-01-07T22:44:13.359Z,99561.28
2023-01-07T22:46:45.757Z,99557.78
2023-01-07T22:49:13.625Z,99550.75
2023-01-07T22:51:46.967Z,99541.06
2023-01-07T22:54:14.952Z,99552.50
2023-01-07T22:56:43.488Z,99545.47
2023-01-07T22:59:10.565Z,99521.72
2023-01-07T23:01:39.903Z,99514.69
2023-01-07T23:04:07.121Z,99520.84
2023-01-07T23:06:34.188Z,99519.06
2023-01-07T23:09:01.492Z,99526.13
2023-01-07T23:11:46.850Z,99526.13
2023-01-07T23:14:15.622Z,99536.69
2023-01-07T23:16:42.716Z,99546.34
2023-01-07T23:19:09.896Z,99537.50
2023-01-07T23:21:40.871Z,99540.16
2023-01-07T23:24:08.209Z,99541.91
2023-01-07T23:26:35.680Z,99533.13
2023-01-07T23:29:02.881Z,99520.81
2023-01-07T23:31:30.518Z,99519.06
2023-01-07T23:33:57.546Z,99500.59
2023-01-07T23:36:24.630Z,99510.25
2023-01-07T23:38:52.357Z,99508.50
2023-01-07T23:41:19.718Z,99498.84
2023-01-07T23:43:46.797Z,99497.06
2023-01-07T23:46:13.926Z,99490.03
2023-01-07T23:48:41.058Z,99486.53
2023-01-07T23:51:11.786Z,99491.78
2023-01-07T23:53:39.552Z,99497.06
2023-01-07T23:56:08.323Z,99501.44
2023-01-07T23:58:36.627Z,99504.06
